sensor_id;sensor_type;location;lat;lon;timestamp;P1;durP1;ratioP1;P2;durP2;ratioP2
5085;SDS011;4715;51.660;7.082;2023-03-14T00:01:17;5.80;;;2.00;;
5085;SDS011;4715;51.660;7.082;2023-03-14T00:03:40;6.40;;;2.57;;
5085;SDS011;4715;51.660;7.082;2023-03-14T00:06:03;4.80;;;2.13;;
5085;SDS011;4715;51.660;7.082;2023-03-14T00:08:25;4.10;;;2.03;;
5085;SDS011;4715;51.660;7.082;2023-03-14T00:10:47;2.33;;;1.90;;
5085;SDS011;4715;51.660;7.082;2023-03-14T00:13:10;4.80;;;2.20;;
5085;SDS011;4715;51.660;7.082;2023-03-14T00:15:32;5.70;;;1.77;;
5085;SDS011;4715;51.660;7.082;2023-03-14T00:17:54;6.87;;;2.00;;
5085;SDS011;4715;51.660;7.082;2023-03-14T00:20:16;4.37;;;1.90;;
5085;SDS011;4715;51.660;7.082;2023-03-14T00:22:38;4.83;;;1.80;;
5085;SDS011;4715;51.660;7.082;2023-03-14T00:25:01;5.00;;;2.00;;
5085;SDS011;4715;51.660;7.082;2023-03-14T00:27:23;3.33;;;1.97;;
5085;SDS011;4715;51.660;7.082;2023-03-14T00:29:46;6.27;;;2.60;;
5085;SDS011;4715;51.660;7.082;2023-03-14T00:32:07;4.10;;;2.33;;
5085;SDS011;4715;51.660;7.082;2023-03-14T00:34:29;4.73;;;1.87;;
5085;SDS011;4715;51.660;7.082;2023-03-14T00:36:52;2.80;;;2.60;;
5085;SDS011;4715;51.660;7.082;2023-03-14T00:39:14;6.20;;;2.20;;
5085;SDS011;4715;51.660;7.082;2023-03-14T00:41:36;4.30;;;1.80;;
5085;SDS011;4715;51.660;7.082;2023-03-14T00:43:58;4.00;;;2.30;;
5085;SDS011;4715;51.660;7.082;2023-03-14T00:46:21;2.47;;;1.80;;
5085;SDS011;4715;51.660;7.082;2023-03-14T00:48:44;3.90;;;1.77;;
5085;SDS011;4715;51.660;7.082;2023-03-14T00:51:07;3.30;;;1.70;;
5085;SDS011;4715;51.660;7.082;2023-03-14T00:53:29;5.63;;;2.30;;
5085;SDS011;4715;51.660;7.082;2023-03-14T00:55:51;7.33;;;2.40;;
5085;SDS011;4715;51.660;7.082;2023-03-14T00:58:14;2.50;;;1.73;;
5085;SDS011;4715;51.660;7.082;2023-03-14T01:00:37;7.77;;;2.10;;
5085;SDS011;4715;51.660;7.082;2023-03-14T01:03:00;4.40;;;1.87;;
5085;SDS011;4715;51.660;7.082;2023-03-14T01:05:23;5.27;;;2.13;;
5085;SDS011;4715;51.660;7.082;2023-03-14T01:07:44;3.80;;;1.73;;
5085;SDS011;4715;51.660;7.082;2023-03-14T01:10:07;4.10;;;3.20;;
5085;SDS011;4715;51.660;7.082;2023-03-14T01:12:30;4.57;;;1.77;;
5085;SDS011;4715;51.660;7.082;2023-03-14T01:14:51;3.13;;;2.03;;
5085;SDS011;4715;51.660;7.082;2023-03-14T01:17:13;5.07;;;1.80;;
5085;SDS011;4715;51.660;7.082;2023-03-14T01:19:36;5.67;;;1.73;;
5085;SDS011;4715;51.660;7.082;2023-03-14T01:21:58;3.40;;;1.70;;
5085;SDS011;4715;51.660;7.082;2023-03-14T01:24:20;2.43;;;1.63;;
5085;SDS011;4715;51.660;7.082;2023-03-14T01:26:42;11.17;;;2.50;;
5085;SDS011;4715;51.660;7.082;2023-03-14T01:29:04;5.27;;;1.87;;
5085;SDS011;4715;51.660;7.082;2023-03-14T01:31:26;3.10;;;1.83;;
5085;SDS011;4715;51.660;7.082;2023-03-14T01:33:48;6.63;;;2.43;;
5085;SDS011;4715;51.660;7.082;2023-03-14T01:36:12;2.30;;;1.67;;
5085;SDS011;4715;51.660;7.082;2023-03-14T01:38:35;3.43;;;2.67;;
5085;SDS011;4715;51.660;7.082;2023-03-14T01:40:58;5.43;;;2.80;;
5085;SDS011;4715;51.660;7.082;2023-03-14T01:43:20;1.57;;;1.33;;
5085;SDS011;4715;51.660;7.082;2023-03-14T01:48:42;15.83;;;2.50;;
5085;SDS011;4715;51.660;7.082;2023-03-14T01:51:09;2.87;;;1.40;;
5085;SDS011;4715;51.660;7.082;2023-03-14T01:53:35;2.57;;;1.50;;
5085;SDS011;4715;51.660;7.082;2023-03-14T01:56:00;3.60;;;1.60;;
5085;SDS011;4715;51.660;7.082;2023-03-14T01:58:24;4.17;;;1.60;;
5085;SDS011;4715;51.660;7.082;2023-03-14T02:00:48;7.70;;;1.80;;
5085;SDS011;4715;51.660;7.082;2023-03-14T02:03:11;1.97;;;1.77;;
5085;SDS011;4715;51.660;7.082;2023-03-14T02:05:38;1.90;;;1.70;;
5085;SDS011;4715;51.660;7.082;2023-03-14T02:08:04;4.03;;;1.70;;
5085;SDS011;4715;51.660;7.082;2023-03-14T02:10:29;3.47;;;1.60;;
5085;SDS011;4715;51.660;7.082;2023-03-14T02:12:53;2.10;;;1.60;;
5085;SDS011;4715;51.660;7.082;2023-03-14T02:15:17;2.13;;;1.90;;
5085;SDS011;4715;51.660;7.082;2023-03-14T02:17:39;4.40;;;2.87;;
5085;SDS011;4715;51.660;7.082;2023-03-14T02:20:07;5.13;;;1.40;;
5085;SDS011;4715;51.660;7.082;2023-03-14T02:22:37;3.80;;;1.57;;
5085;SDS011;4715;51.660;7.082;2023-03-14T02:25:04;3.33;;;2.33;;
5085;SDS011;4715;51.660;7.082;2023-03-14T02:27:33;2.63;;;1.43;;
5085;SDS011;4715;51.660;7.082;2023-03-14T02:29:56;2.97;;;1.20;;
5085;SDS011;4715;51.660;7.082;2023-03-14T02:32:21;6.07;;;2.10;;
5085;SDS011;4715;51.660;7.082;2023-03-14T02:34:45;1.87;;;1.70;;
5085;SDS011;4715;51.660;7.082;2023-03-14T02:37:10;3.07;;;1.63;;
5085;SDS011;4715;51.660;7.082;2023-03-14T02:39:38;6.00;;;1.63;;
5085;SDS011;4715;51.660;7.082;2023-03-14T02:42:04;3.00;;;1.60;;
5085;SDS011;4715;51.660;7.082;2023-03-14T02:44:27;11.00;;;2.20;;
5085;SDS011;4715;51.660;7.082;2023-03-14T02:46:49;6.10;;;1.97;;
5085;SDS011;4715;51.660;7.082;2023-03-14T02:49:12;3.10;;;1.40;;
5085;SDS011;4715;51.660;7.082;2023-03-14T02:51:35;3.87;;;1.80;;
5085;SDS011;4715;51.660;7.082;2023-03-14T02:53:57;5.10;;;1.87;;
5085;SDS011;4715;51.660;7.082;2023-03-14T02:56:19;7.27;;;2.60;;
5085;SDS011;4715;51.660;7.082;2023-03-14T02:58:41;4.47;;;2.07;;
5085;SDS011;4715;51.660;7.082;2023-03-14T03:01:05;10.23;;;2.20;;
5085;SDS011;4715;51.660;7.082;2023-03-14T03:03:27;9.37;;;2.30;;
5085;SDS011;4715;51.660;7.082;2023-03-14T03:05:49;8.50;;;2.30;;
5085;SDS011;4715;51.660;7.082;2023-03-14T03:08:11;7.30;;;2.07;;
5085;SDS011;4715;51.660;7.082;2023-03-14T03:10:33;4.00;;;2.50;;
5085;SDS011;4715;51.660;7.082;2023-03-14T03:12:55;7.57;;;2.00;;
5085;SDS011;4715;51.660;7.082;2023-03-14T03:15:17;5.57;;;2.00;;
5085;SDS011;4715;51.660;7.082;2023-03-14T03:17:40;8.60;;;2.00;;
5085;SDS011;4715;51.660;7.082;2023-03-14T03:20:02;5.53;;;2.43;;
5085;SDS011;4715;51.660;7.082;2023-03-14T03:22:28;9.33;;;2.40;;
5085;SDS011;4715;51.660;7.082;2023-03-14T03:24:50;3.47;;;1.87;;
5085;SDS011;4715;51.660;7.082;2023-03-14T03:27:12;4.70;;;2.97;;
5085;SDS011;4715;51.660;7.082;2023-03-14T03:29:34;7.67;;;2.40;;
5085;SDS011;4715;51.660;7.082;2023-03-14T03:31:56;4.77;;;2.30;;
5085;SDS011;4715;51.660;7.082;2023-03-14T03:34:19;11.00;;;3.03;;
5085;SDS011;4715;51.660;7.082;2023-03-14T03:36:41;7.30;;;2.40;;
5085;SDS011;4715;51.660;7.082;2023-03-14T03:39:03;13.53;;;3.47;;
5085;SDS011;4715;51.660;7.082;2023-03-14T03:41:25;5.57;;;2.70;;
5085;SDS011;4715;51.660;7.082;2023-03-14T03:43:47;6.20;;;2.03;;
5085;SDS011;4715;51.660;7.082;2023-03-14T03:46:10;10.53;;;2.70;;
5085;SDS011;4715;51.660;7.082;2023-03-14T03:48:32;4.37;;;1.87;;
5085;SDS011;4715;51.660;7.082;2023-03-14T03:50:55;7.07;;;2.37;;
5085;SDS011;4715;51.660;7.082;2023-03-14T03:53:17;7.90;;;2.40;;
5085;SDS011;4715;51.660;7.082;2023-03-14T03:55:40;5.93;;;2.53;;
5085;SDS011;4715;51.660;7.082;2023-03-14T03:58:02;5.40;;;2.17;;
5085;SDS011;4715;51.660;7.082;2023-03-14T04:00:24;5.73;;;2.07;;
5085;SDS011;4715;51.660;7.082;2023-03-14T04:02:45;7.37;;;2.70;;
5085;SDS011;4715;51.660;7.082;2023-03-14T04:05:07;6.17;;;2.37;;
5085;SDS011;4715;51.660;7.082;2023-03-14T04:07:32;9.23;;;2.57;;
5085;SDS011;4715;51.660;7.082;2023-03-14T04:09:54;7.20;;;2.90;;
5085;SDS011;4715;51.660;7.082;2023-03-14T04:12:16;6.03;;;2.00;;
5085;SDS011;4715;51.660;7.082;2023-03-14T04:14:37;3.50;;;2.00;;
5085;SDS011;4715;51.660;7.082;2023-03-14T04:17:01;3.70;;;2.27;;
5085;SDS011;4715;51.660;7.082;2023-03-14T04:19:22;4.03;;;1.90;;
5085;SDS011;4715;51.660;7.082;2023-03-14T04:21:44;4.47;;;2.13;;
5085;SDS011;4715;51.660;7.082;2023-03-14T04:24:08;5.50;;;1.63;;
5085;SDS011;4715;51.660;7.082;2023-03-14T04:26:30;3.90;;;1.90;;
5085;SDS011;4715;51.660;7.082;2023-03-14T04:28:51;5.80;;;1.90;;
5085;SDS011;4715;51.660;7.082;2023-03-14T04:31:16;7.07;;;1.90;;
5085;SDS011;4715;51.660;7.082;2023-03-14T04:33:39;4.77;;;1.80;;
5085;SDS011;4715;51.660;7.082;2023-03-14T04:36:00;3.80;;;1.83;;
5085;SDS011;4715;51.660;7.082;2023-03-14T04:38:22;4.50;;;1.77;;
5085;SDS011;4715;51.660;7.082;2023-03-14T04:40:45;9.27;;;2.07;;
5085;SDS011;4715;51.660;7.082;2023-03-14T04:43:07;5.53;;;1.60;;
5085;SDS011;4715;51.660;7.082;2023-03-14T04:45:31;3.43;;;1.40;;
5085;SDS011;4715;51.660;7.082;2023-03-14T04:47:53;4.93;;;1.77;;
5085;SDS011;4715;51.660;7.082;2023-03-14T04:50:14;3.00;;;1.77;;
5085;SDS011;4715;51.660;7.082;2023-03-14T04:52:36;2.40;;;1.30;;
5085;SDS011;4715;51.660;7.082;2023-03-14T04:54:58;3.90;;;1.50;;
5085;SDS011;4715;51.660;7.082;2023-03-14T04:57:21;1.40;;;1.30;;
5085;SDS011;4715;51.660;7.082;2023-03-14T04:59:43;3.03;;;1.60;;
5085;SDS011;4715;51.660;7.082;2023-03-14T05:02:05;2.27;;;1.50;;
5085;SDS011;4715;51.660;7.082;2023-03-14T05:04:27;2.40;;;1.30;;
5085;SDS011;4715;51.660;7.082;2023-03-14T05:06:49;2.93;;;1.40;;
5085;SDS011;4715;51.660;7.082;2023-03-14T05:09:11;3.50;;;1.60;;
5085;SDS011;4715;51.660;7.082;2023-03-14T05:11:33;2.33;;;1.40;;
5085;SDS011;4715;51.660;7.082;2023-03-14T05:13:56;5.07;;;1.53;;
5085;SDS011;4715;51.660;7.082;2023-03-14T05:16:18;4.33;;;1.37;;
5085;SDS011;4715;51.660;7.082;2023-03-14T05:18:40;2.83;;;1.47;;
5085;SDS011;4715;51.660;7.082;2023-03-14T05:21:02;1.90;;;1.33;;
5085;SDS011;4715;51.660;7.082;2023-03-14T05:23:24;3.50;;;1.80;;
5085;SDS011;4715;51.660;7.082;2023-03-14T05:25:46;1.97;;;1.40;;
5085;SDS011;4715;51.660;7.082;2023-03-14T05:28:08;1.70;;;1.60;;
5085;SDS011;4715;51.660;7.082;2023-03-14T05:30:31;1.77;;;1.33;;
5085;SDS011;4715;51.660;7.082;2023-03-14T05:32:53;4.03;;;1.80;;
5085;SDS011;4715;51.660;7.082;2023-03-14T05:35:15;2.93;;;1.57;;
5085;SDS011;4715;51.660;7.082;2023-03-14T05:37:37;1.67;;;1.57;;
5085;SDS011;4715;51.660;7.082;2023-03-14T05:39:59;2.73;;;1.50;;
5085;SDS011;4715;51.660;7.082;2023-03-14T05:42:22;2.50;;;1.67;;
5085;SDS011;4715;51.660;7.082;2023-03-14T05:44:44;2.27;;;1.63;;
5085;SDS011;4715;51.660;7.082;2023-03-14T05:47:07;2.20;;;1.83;;
5085;SDS011;4715;51.660;7.082;2023-03-14T05:49:29;2.90;;;1.77;;
5085;SDS011;4715;51.660;7.082;2023-03-14T05:51:51;2.07;;;1.97;;
5085;SDS011;4715;51.660;7.082;2023-03-14T05:54:13;2.13;;;1.93;;
5085;SDS011;4715;51.660;7.082;2023-03-14T05:56:34;1.87;;;1.60;;
5085;SDS011;4715;51.660;7.082;2023-03-14T05:58:56;2.60;;;2.20;;
5085;SDS011;4715;51.660;7.082;2023-03-14T06:01:18;2.30;;;2.20;;
5085;SDS011;4715;51.660;7.082;2023-03-14T06:03:41;4.00;;;1.80;;
5085;SDS011;4715;51.660;7.082;2023-03-14T06:06:03;2.93;;;1.93;;
5085;SDS011;4715;51.660;7.082;2023-03-14T06:08:26;1.60;;;1.50;;
5085;SDS011;4715;51.660;7.082;2023-03-14T06:10:48;3.77;;;2.70;;
5085;SDS011;4715;51.660;7.082;2023-03-14T06:13:10;5.07;;;2.80;;
5085;SDS011;4715;51.660;7.082;2023-03-14T06:15:33;4.20;;;3.83;;
5085;SDS011;4715;51.660;7.082;2023-03-14T06:17:55;7.70;;;5.27;;
5085;SDS011;4715;51.660;7.082;2023-03-14T06:20:19;6.93;;;6.33;;
5085;SDS011;4715;51.660;7.082;2023-03-14T06:22:40;7.73;;;7.10;;
5085;SDS011;4715;51.660;7.082;2023-03-14T06:25:02;9.37;;;8.33;;
5085;SDS011;4715;51.660;7.082;2023-03-14T06:27:24;11.83;;;9.93;;
5085;SDS011;4715;51.660;7.082;2023-03-14T06:29:46;10.33;;;8.50;;
5085;SDS011;4715;51.660;7.082;2023-03-14T06:32:08;7.97;;;7.27;;
5085;SDS011;4715;51.660;7.082;2023-03-14T06:34:30;7.77;;;7.03;;
5085;SDS011;4715;51.660;7.082;2023-03-14T06:36:53;6.80;;;6.00;;
5085;SDS011;4715;51.660;7.082;2023-03-14T06:39:15;7.03;;;5.17;;
5085;SDS011;4715;51.660;7.082;2023-03-14T06:41:37;4.63;;;4.20;;
5085;SDS011;4715;51.660;7.082;2023-03-14T06:43:59;4.40;;;4.10;;
5085;SDS011;4715;51.660;7.082;2023-03-14T06:46:22;4.97;;;4.50;;
5085;SDS011;4715;51.660;7.082;2023-03-14T06:48:44;4.60;;;3.77;;
5085;SDS011;4715;51.660;7.082;2023-03-14T06:51:05;5.23;;;4.77;;
5085;SDS011;4715;51.660;7.082;2023-03-14T06:53:29;6.33;;;5.83;;
5085;SDS011;4715;51.660;7.082;2023-03-14T06:55:51;5.97;;;5.57;;
5085;SDS011;4715;51.660;7.082;2023-03-14T06:58:13;6.23;;;5.73;;
5085;SDS011;4715;51.660;7.082;2023-03-14T07:00:34;6.33;;;5.60;;
5085;SDS011;4715;51.660;7.082;2023-03-14T07:02:56;6.20;;;5.70;;
5085;SDS011;4715;51.660;7.082;2023-03-14T07:05:18;9.73;;;7.50;;
5085;SDS011;4715;51.660;7.082;2023-03-14T07:07:40;7.33;;;6.73;;
5085;SDS011;4715;51.660;7.082;2023-03-14T07:10:04;6.97;;;6.37;;
5085;SDS011;4715;51.660;7.082;2023-03-14T07:12:28;6.70;;;6.20;;
5085;SDS011;4715;51.660;7.082;2023-03-14T07:14:50;5.77;;;5.27;;
5085;SDS011;4715;51.660;7.082;2023-03-14T07:17:12;7.20;;;5.30;;
5085;SDS011;4715;51.660;7.082;2023-03-14T07:19:34;6.17;;;5.70;;
5085;SDS011;4715;51.660;7.082;2023-03-14T07:21:57;6.23;;;5.80;;
5085;SDS011;4715;51.660;7.082;2023-03-14T07:24:21;5.20;;;4.80;;
5085;SDS011;4715;51.660;7.082;2023-03-14T07:26:52;5.87;;;5.47;;
5085;SDS011;4715;51.660;7.082;2023-03-14T07:29:14;5.47;;;5.07;;
5085;SDS011;4715;51.660;7.082;2023-03-14T07:31:36;4.40;;;4.10;;
5085;SDS011;4715;51.660;7.082;2023-03-14T07:33:57;5.07;;;4.77;;
5085;SDS011;4715;51.660;7.082;2023-03-14T07:36:19;4.97;;;4.67;;
5085;SDS011;4715;51.660;7.082;2023-03-14T07:38:41;6.40;;;5.77;;
5085;SDS011;4715;51.660;7.082;2023-03-14T07:41:04;4.50;;;4.20;;
5085;SDS011;4715;51.660;7.082;2023-03-14T07:43:28;5.13;;;4.83;;
5085;SDS011;4715;51.660;7.082;2023-03-14T07:45:50;4.83;;;4.03;;
5085;SDS011;4715;51.660;7.082;2023-03-14T07:48:12;5.10;;;3.70;;
5085;SDS011;4715;51.660;7.082;2023-03-14T07:50:34;4.73;;;4.33;;
5085;SDS011;4715;51.660;7.082;2023-03-14T07:52:56;4.03;;;3.77;;
5085;SDS011;4715;51.660;7.082;2023-03-14T07:55:18;4.73;;;4.03;;
5085;SDS011;4715;51.660;7.082;2023-03-14T07:57:40;4.90;;;4.50;;
5085;SDS011;4715;51.660;7.082;2023-03-14T08:00:03;5.00;;;4.70;;
5085;SDS011;4715;51.660;7.082;2023-03-14T08:02:26;4.70;;;4.40;;
5085;SDS011;4715;51.660;7.082;2023-03-14T08:04:48;5.87;;;4.87;;
5085;SDS011;4715;51.660;7.082;2023-03-14T08:07:10;5.57;;;4.40;;
5085;SDS011;4715;51.660;7.082;2023-03-14T08:09:32;5.40;;;4.90;;
5085;SDS011;4715;51.660;7.082;2023-03-14T08:11:54;5.10;;;4.53;;
5085;SDS011;4715;51.660;7.082;2023-03-14T08:14:16;5.03;;;4.57;;
5085;SDS011;4715;51.660;7.082;2023-03-14T08:16:39;4.80;;;4.50;;
5085;SDS011;4715;51.660;7.082;2023-03-14T08:19:01;3.93;;;3.73;;
5085;SDS011;4715;51.660;7.082;2023-03-14T08:21:23;3.50;;;3.30;;
5085;SDS011;4715;51.660;7.082;2023-03-14T08:23:45;4.37;;;4.10;;
5085;SDS011;4715;51.660;7.082;2023-03-14T08:26:07;5.33;;;4.40;;
5085;SDS011;4715;51.660;7.082;2023-03-14T08:28:29;4.67;;;4.37;;
5085;SDS011;4715;51.660;7.082;2023-03-14T08:30:54;4.17;;;3.77;;
5085;SDS011;4715;51.660;7.082;2023-03-14T08:33:18;5.07;;;4.67;;
5085;SDS011;4715;51.660;7.082;2023-03-14T08:35:40;4.23;;;3.90;;
5085;SDS011;4715;51.660;7.082;2023-03-14T08:38:01;4.60;;;4.30;;
5085;SDS011;4715;51.660;7.082;2023-03-14T08:40:23;4.63;;;4.33;;
5085;SDS011;4715;51.660;7.082;2023-03-14T08:42:46;4.27;;;3.97;;
5085;SDS011;4715;51.660;7.082;2023-03-14T08:45:08;4.20;;;4.00;;
5085;SDS011;4715;51.660;7.082;2023-03-14T08:47:33;3.67;;;3.33;;
5085;SDS011;4715;51.660;7.082;2023-03-14T08:49:58;3.73;;;3.53;;
5085;SDS011;4715;51.660;7.082;2023-03-14T08:52:19;4.13;;;3.73;;
5085;SDS011;4715;51.660;7.082;2023-03-14T08:54:41;4.90;;;3.87;;
5085;SDS011;4715;51.660;7.082;2023-03-14T08:57:05;4.03;;;3.30;;
5085;SDS011;4715;51.660;7.082;2023-03-14T08:59:27;3.07;;;2.87;;
5085;SDS011;4715;51.660;7.082;2023-03-14T09:01:48;2.67;;;2.47;;
5085;SDS011;4715;51.660;7.082;2023-03-14T09:04:10;2.20;;;2.10;;
5085;SDS011;4715;51.660;7.082;2023-03-14T09:06:35;2.37;;;1.63;;
5085;SDS011;4715;51.660;7.082;2023-03-14T09:08:57;1.60;;;1.50;;
5085;SDS011;4715;51.660;7.082;2023-03-14T09:11:18;4.10;;;2.27;;
5085;SDS011;4715;51.660;7.082;2023-03-14T09:13:40;4.20;;;1.60;;
5085;SDS011;4715;51.660;7.082;2023-03-14T09:16:02;1.57;;;1.43;;
5085;SDS011;4715;51.660;7.082;2023-03-14T09:18:25;1.63;;;1.50;;
5085;SDS011;4715;51.660;7.082;2023-03-14T09:20:52;2.30;;;1.63;;
5085;SDS011;4715;51.660;7.082;2023-03-14T09:23:18;1.40;;;1.30;;
5085;SDS011;4715;51.660;7.082;2023-03-14T09:25:39;1.00;;;1.00;;
5085;SDS011;4715;51.660;7.082;2023-03-14T09:28:01;0.90;;;0.90;;
5085;SDS011;4715;51.660;7.082;2023-03-14T09:30:23;0.90;;;0.90;;
5085;SDS011;4715;51.660;7.082;2023-03-14T09:32:45;0.80;;;0.80;;
5085;SDS011;4715;51.660;7.082;2023-03-14T09:35:07;1.13;;;0.90;;
5085;SDS011;4715;51.660;7.082;2023-03-14T09:37:30;1.43;;;1.23;;
5085;SDS011;4715;51.660;7.082;2023-03-14T09:39:53;1.73;;;1.63;;
5085;SDS011;4715;51.660;7.082;2023-03-14T09:42:16;1.07;;;1.00;;
5085;SDS011;4715;51.660;7.082;2023-03-14T09:44:42;1.00;;;1.00;;
5085;SDS011;4715;51.660;7.082;2023-03-14T09:47:12;2.40;;;1.00;;
5085;SDS011;4715;51.660;7.082;2023-03-14T09:49:36;1.50;;;1.20;;
5085;SDS011;4715;51.660;7.082;2023-03-14T09:52:02;1.83;;;1.10;;
5085;SDS011;4715;51.660;7.082;2023-03-14T09:54:32;1.20;;;1.10;;
5085;SDS011;4715;51.660;7.082;2023-03-14T09:56:58;0.87;;;0.83;;
5085;SDS011;4715;51.660;7.082;2023-03-14T09:59:20;1.00;;;0.90;;
5085;SDS011;4715;51.660;7.082;2023-03-14T10:01:42;1.20;;;1.10;;
5085;SDS011;4715;51.660;7.082;2023-03-14T10:04:05;1.00;;;1.00;;
5085;SDS011;4715;51.660;7.082;2023-03-14T10:06:32;0.80;;;0.80;;
5085;SDS011;4715;51.660;7.082;2023-03-14T10:08:54;0.97;;;0.80;;
5085;SDS011;4715;51.660;7.082;2023-03-14T10:11:18;0.70;;;0.70;;
5085;SDS011;4715;51.660;7.082;2023-03-14T10:13:52;1.17;;;0.90;;
5085;SDS011;4715;51.660;7.082;2023-03-14T10:16:27;4.43;;;1.00;;
5085;SDS011;4715;51.660;7.082;2023-03-14T10:18:52;1.40;;;1.13;;
5085;SDS011;4715;51.660;7.082;2023-03-14T10:21:17;1.07;;;0.83;;
5085;SDS011;4715;51.660;7.082;2023-03-14T10:23:47;0.83;;;0.80;;
5085;SDS011;4715;51.660;7.082;2023-03-14T10:26:12;0.87;;;0.87;;
5085;SDS011;4715;51.660;7.082;2023-03-14T10:28:37;1.20;;;1.10;;
5085;SDS011;4715;51.660;7.082;2023-03-14T10:31:02;2.10;;;1.30;;
5085;SDS011;4715;51.660;7.082;2023-03-14T10:33:25;1.93;;;1.20;;
5085;SDS011;4715;51.660;7.082;2023-03-14T10:35:52;1.00;;;0.90;;
5085;SDS011;4715;51.660;7.082;2023-03-14T10:38:16;2.03;;;1.47;;
5085;SDS011;4715;51.660;7.082;2023-03-14T10:40:39;2.90;;;1.10;;
5085;SDS011;4715;51.660;7.082;2023-03-14T10:43:03;1.40;;;1.30;;
5085;SDS011;4715;51.660;7.082;2023-03-14T10:45:34;3.20;;;1.00;;
5085;SDS011;4715;51.660;7.082;2023-03-14T10:48:05;1.00;;;0.90;;
5085;SDS011;4715;51.660;7.082;2023-03-14T10:50:36;0.90;;;0.90;;
5085;SDS011;4715;51.660;7.082;2023-03-14T10:53:00;1.07;;;0.80;;
5085;SDS011;4715;51.660;7.082;2023-03-14T10:55:25;1.47;;;1.17;;
5085;SDS011;4715;51.660;7.082;2023-03-14T10:57:47;0.90;;;0.90;;
5085;SDS011;4715;51.660;7.082;2023-03-14T11:00:12;0.70;;;0.70;;
5085;SDS011;4715;51.660;7.082;2023-03-14T11:02:40;1.17;;;1.07;;
5085;SDS011;4715;51.660;7.082;2023-03-14T11:05:18;1.20;;;0.70;;
5085;SDS011;4715;51.660;7.082;2023-03-14T11:07:48;0.73;;;0.73;;
5085;SDS011;4715;51.660;7.082;2023-03-14T11:10:14;1.00;;;1.00;;
5085;SDS011;4715;51.660;7.082;2023-03-14T11:12:41;0.87;;;0.73;;
5085;SDS011;4715;51.660;7.082;2023-03-14T11:15:15;1.07;;;0.80;;
5085;SDS011;4715;51.660;7.082;2023-03-14T11:17:45;1.57;;;0.80;;
5085;SDS011;4715;51.660;7.082;2023-03-14T11:20:20;0.70;;;0.70;;
5085;SDS011;4715;51.660;7.082;2023-03-14T11:22:54;0.80;;;0.80;;
5085;SDS011;4715;51.660;7.082;2023-03-14T11:25:22;1.97;;;0.80;;
5085;SDS011;4715;51.660;7.082;2023-03-14T11:27:53;0.80;;;0.80;;
5085;SDS011;4715;51.660;7.082;2023-03-14T11:30:23;2.60;;;0.90;;
5085;SDS011;4715;51.660;7.082;2023-03-14T11:32:50;1.13;;;0.83;;
5085;SDS011;4715;51.660;7.082;2023-03-14T11:35:22;0.93;;;0.87;;
5085;SDS011;4715;51.660;7.082;2023-03-14T11:37:50;1.43;;;1.00;;
5085;SDS011;4715;51.660;7.082;2023-03-14T11:40:20;1.80;;;1.00;;
5085;SDS011;4715;51.660;7.082;2023-03-14T11:42:46;1.47;;;1.13;;
5085;SDS011;4715;51.660;7.082;2023-03-14T11:45:14;2.10;;;1.00;;
5085;SDS011;4715;51.660;7.082;2023-03-14T11:47:39;4.30;;;1.10;;
5085;SDS011;4715;51.660;7.082;2023-03-14T11:50:04;0.97;;;0.80;;
5085;SDS011;4715;51.660;7.082;2023-03-14T11:52:37;1.00;;;1.00;;
5085;SDS011;4715;51.660;7.082;2023-03-14T11:55:07;1.33;;;1.23;;
5085;SDS011;4715;51.660;7.082;2023-03-14T11:57:33;1.57;;;0.90;;
5085;SDS011;4715;51.660;7.082;2023-03-14T11:59:57;1.83;;;1.30;;
5085;SDS011;4715;51.660;7.082;2023-03-14T12:02:25;3.07;;;1.47;;
5085;SDS011;4715;51.660;7.082;2023-03-14T12:05:11;2.37;;;1.10;;
5085;SDS011;4715;51.660;7.082;2023-03-14T12:08:03;1.60;;;1.10;;
5085;SDS011;4715;51.660;7.082;2023-03-14T12:10:41;1.67;;;1.20;;
5085;SDS011;4715;51.660;7.082;2023-03-14T12:13:07;1.00;;;1.00;;
5085;SDS011;4715;51.660;7.082;2023-03-14T12:15:31;1.70;;;1.00;;
5085;SDS011;4715;51.660;7.082;2023-03-14T12:18:00;3.03;;;1.40;;
5085;SDS011;4715;51.660;7.082;2023-03-14T12:20:22;1.60;;;1.13;;
5085;SDS011;4715;51.660;7.082;2023-03-14T12:22:46;2.00;;;1.33;;
5085;SDS011;4715;51.660;7.082;2023-03-14T12:25:15;1.63;;;1.30;;
5085;SDS011;4715;51.660;7.082;2023-03-14T12:27:43;2.23;;;1.27;;
5085;SDS011;4715;51.660;7.082;2023-03-14T12:30:14;3.80;;;1.20;;
5085;SDS011;4715;51.660;7.082;2023-03-14T12:32:40;2.13;;;1.30;;
5085;SDS011;4715;51.660;7.082;2023-03-14T12:35:07;2.30;;;1.20;;
5085;SDS011;4715;51.660;7.082;2023-03-14T12:37:47;7.30;;;1.47;;
5085;SDS011;4715;51.660;7.082;2023-03-14T12:40:15;2.63;;;1.10;;
5085;SDS011;4715;51.660;7.082;2023-03-14T12:42:43;1.77;;;1.50;;
5085;SDS011;4715;51.660;7.082;2023-03-14T12:45:22;2.73;;;1.47;;
5085;SDS011;4715;51.660;7.082;2023-03-14T12:47:52;1.93;;;1.83;;
5085;SDS011;4715;51.660;7.082;2023-03-14T12:50:20;4.20;;;1.53;;
5085;SDS011;4715;51.660;7.082;2023-03-14T12:56:14;1.97;;;1.30;;
5085;SDS011;4715;51.660;7.082;2023-03-14T12:58:47;1.70;;;1.30;;
5085;SDS011;4715;51.660;7.082;2023-03-14T13:01:22;1.77;;;1.20;;
5085;SDS011;4715;51.660;7.082;2023-03-14T13:03:45;1.80;;;1.33;;
5085;SDS011;4715;51.660;7.082;2023-03-14T13:06:08;2.83;;;1.30;;
5085;SDS011;4715;51.660;7.082;2023-03-14T13:08:35;4.00;;;1.63;;
5085;SDS011;4715;51.660;7.082;2023-03-14T13:10:59;8.20;;;2.93;;
5085;SDS011;4715;51.660;7.082;2023-03-14T13:13:25;9.70;;;2.37;;
5085;SDS011;4715;51.660;7.082;2023-03-14T13:15:49;12.67;;;2.50;;
5085;SDS011;4715;51.660;7.082;2023-03-14T13:18:19;8.00;;;1.97;;
5085;SDS011;4715;51.660;7.082;2023-03-14T13:20:48;5.13;;;1.97;;
5085;SDS011;4715;51.660;7.082;2023-03-14T13:23:20;4.00;;;1.53;;
5085;SDS011;4715;51.660;7.082;2023-03-14T13:25:44;3.30;;;1.80;;
5085;SDS011;4715;51.660;7.082;2023-03-14T13:28:09;2.50;;;2.17;;
5085;SDS011;4715;51.660;7.082;2023-03-14T13:30:40;5.50;;;1.97;;
5085;SDS011;4715;51.660;7.082;2023-03-14T13:33:04;6.13;;;1.60;;
5085;SDS011;4715;51.660;7.082;2023-03-14T13:35:28;3.67;;;1.40;;
5085;SDS011;4715;51.660;7.082;2023-03-14T13:37:59;7.87;;;1.90;;
5085;SDS011;4715;51.660;7.082;2023-03-14T13:40:24;3.13;;;1.97;;
5085;SDS011;4715;51.660;7.082;2023-03-14T13:42:50;6.30;;;2.90;;
5085;SDS011;4715;51.660;7.082;2023-03-14T13:45:24;7.60;;;2.40;;
5085;SDS011;4715;51.660;7.082;2023-03-14T13:47:47;4.17;;;2.00;;
5085;SDS011;4715;51.660;7.082;2023-03-14T13:50:15;5.60;;;2.13;;
5085;SDS011;4715;51.660;7.082;2023-03-14T13:52:39;8.40;;;2.20;;
5085;SDS011;4715;51.660;7.082;2023-03-14T13:55:01;4.97;;;1.97;;
5085;SDS011;4715;51.660;7.082;2023-03-14T13:57:25;5.57;;;2.00;;
5085;SDS011;4715;51.660;7.082;2023-03-14T13:59:57;5.93;;;2.53;;
5085;SDS011;4715;51.660;7.082;2023-03-14T14:02:21;1.93;;;1.70;;
5085;SDS011;4715;51.660;7.082;2023-03-14T14:04:46;8.87;;;2.13;;
5085;SDS011;4715;51.660;7.082;2023-03-14T14:07:09;4.80;;;1.87;;
5085;SDS011;4715;51.660;7.082;2023-03-14T14:09:35;3.20;;;1.80;;
5085;SDS011;4715;51.660;7.082;2023-03-14T14:12:00;6.83;;;1.60;;
5085;SDS011;4715;51.660;7.082;2023-03-14T14:14:27;3.37;;;1.67;;
5085;SDS011;4715;51.660;7.082;2023-03-14T14:16:52;3.10;;;1.67;;
5085;SDS011;4715;51.660;7.082;2023-03-14T14:19:15;4.60;;;1.97;;
5085;SDS011;4715;51.660;7.082;2023-03-14T14:21:40;6.60;;;2.37;;
5085;SDS011;4715;51.660;7.082;2023-03-14T14:24:03;3.67;;;1.53;;
5085;SDS011;4715;51.660;7.082;2023-03-14T14:26:26;2.00;;;1.70;;
5085;SDS011;4715;51.660;7.082;2023-03-14T14:28:57;9.70;;;2.07;;
5085;SDS011;4715;51.660;7.082;2023-03-14T14:31:21;4.30;;;2.63;;
5085;SDS011;4715;51.660;7.082;2023-03-14T14:33:45;8.40;;;2.53;;
5085;SDS011;4715;51.660;7.082;2023-03-14T14:36:18;4.70;;;2.07;;
5085;SDS011;4715;51.660;7.082;2023-03-14T14:38:53;4.00;;;1.60;;
5085;SDS011;4715;51.660;7.082;2023-03-14T14:41:18;3.50;;;1.47;;
5085;SDS011;4715;51.660;7.082;2023-03-14T14:43:40;5.40;;;2.03;;
5085;SDS011;4715;51.660;7.082;2023-03-14T14:46:05;6.27;;;1.53;;
5085;SDS011;4715;51.660;7.082;2023-03-14T14:48:28;3.87;;;1.70;;
5085;SDS011;4715;51.660;7.082;2023-03-14T14:50:55;5.67;;;1.47;;
5085;SDS011;4715;51.660;7.082;2023-03-14T14:53:21;4.80;;;2.97;;
5085;SDS011;4715;51.660;7.082;2023-03-14T14:55:49;4.73;;;2.53;;
5085;SDS011;4715;51.660;7.082;2023-03-14T14:58:18;2.70;;;1.50;;
5085;SDS011;4715;51.660;7.082;2023-03-14T15:00:49;1.93;;;1.60;;
5085;SDS011;4715;51.660;7.082;2023-03-14T15:03:14;5.20;;;1.90;;